createdAt,value
2019-05-06T06:04:19.261Z,28.94
2019-05-06T06:04:57.630Z,28.79
2019-05-06T06:05:34.835Z,28.71
2019-05-06T06:06:12.658Z,28.23
2019-05-06T06:06:51.833Z,28.23
2019-05-06T06:07:28.208Z,26.57
2019-05-06T06:08:05.319Z,24.89
2019-05-06T06:08:43.173Z,24.36
2019-05-06T06:09:23.588Z,24.22
2019-05-06T06:10:22.458Z,24.08
2019-05-06T06:11:04.271Z,24.88
2019-05-06T06:11:42.864Z,24.56
2019-05-06T06:12:19.469Z,24.58
2019-05-06T06:12:55.898Z,24.61
2019-05-06T06:13:32.870Z,24.93
2019-05-06T06:14:12.679Z,25.37
2019-05-06T06:14:55.598Z,25.05
2019-05-06T06:15:47.405Z,24.87
2019-05-06T06:16:38.545Z,24.83
2019-05-06T06:17:33.582Z,24.92
2019-05-06T06:18:27.754Z,25.32
2019-05-06T06:19:09.278Z,25.32
2019-05-06T06:19:47.618Z,25.10
2019-05-06T06:20:42.287Z,25.42
2019-05-06T06:21:28.092Z,25.42
2019-05-06T06:22:05.070Z,26.12
2019-05-06T06:22:42.528Z,26.12
2019-05-06T06:23:24.294Z,26.28
2019-05-06T06:24:18.698Z,26.28
2019-05-06T06:24:55.447Z,26.41
2019-05-06T06:25:33.475Z,26.31
2019-05-06T06:26:12.151Z,26.35
2019-05-06T06:26:53.889Z,26.38
2019-05-06T06:27:33.176Z,26.24
2019-05-06T06:28:11.937Z,26.32
2019-05-06T06:28:48.591Z,26.32
2019-05-06T06:29:25.334Z,26.77
2019-05-06T06:30:02.488Z,26.77
2019-05-06T06:30:48.855Z,26.73
2019-05-06T06:31:27.307Z,26.63
2019-05-06T06:32:13.801Z,26.80
2019-05-06T06:32:53.233Z,26.84
2019-05-06T06:33:29.697Z,26.79
2019-05-06T06:34:08.951Z,26.77
2019-05-06T06:34:53.375Z,26.80
2019-05-06T06:35:32.405Z,27.29
2019-05-06T06:36:45.634Z,26.90
2019-05-06T06:37:38.295Z,26.88
2019-05-06T06:38:17.432Z,26.92
2019-05-06T06:39:02.125Z,26.79
2019-05-06T06:39:42.287Z,27.37
2019-05-06T06:40:22.248Z,27.37
2019-05-06T06:41:02.546Z,27.92
2019-05-06T06:41:38.353Z,27.92
2019-05-06T06:42:15.182Z,29.06
2019-05-06T06:42:53.496Z,29.70
2019-05-06T06:43:32.441Z,30.48
2019-05-06T06:44:13.108Z,29.68
2019-05-06T06:44:49.556Z,29.72
2019-05-06T06:45:26.853Z,29.72
2019-05-06T06:46:03.531Z,29.77
2019-05-06T06:46:39.360Z,30.46
2019-05-06T06:47:16.106Z,30.78
2019-05-06T06:47:52.989Z,31.12
2019-05-06T06:48:32.011Z,31.33
2019-05-06T06:49:08.850Z,31.46
2019-05-06T06:49:45.502Z,31.50
2019-05-06T06:50:22.085Z,31.57
2019-05-06T06:51:03.479Z,31.45
2019-05-06T06:51:42.320Z,31.69
2019-05-06T06:52:19.315Z,31.69
2019-05-06T06:52:55.926Z,31.75
2019-05-06T06:53:32.747Z,31.77
2019-05-06T06:54:09.453Z,31.78
2019-05-06T06:54:45.542Z,31.80
2019-05-06T06:55:22.585Z,31.80
2019-05-06T06:56:17.438Z,31.81
2019-05-06T06:57:06.129Z,31.80
2019-05-06T06:57:57.496Z,31.86
2019-05-06T06:58:35.467Z,31.88
2019-05-06T06:59:13.302Z,31.94
2019-05-06T06:59:52.366Z,31.93
2019-05-06T07:00:33.142Z,31.59
2019-05-06T07:01:42.777Z,31.91
2019-05-06T07:02:32.773Z,31.86
2019-05-06T07:03:15.952Z,31.88
2019-05-06T07:03:54.471Z,31.85
2019-05-06T07:04:44.470Z,31.85
2019-05-06T07:05:28.456Z,31.82
2019-05-06T07:06:09.374Z,31.79
2019-05-06T07:07:43.980Z,31.70
2019-05-06T07:08:31.375Z,31.72
2019-05-06T07:08:56.450Z,31.67
2019-05-06T07:09:32.467Z,31.62
2019-05-06T07:10:12.117Z,31.56
2019-05-06T07:10:47.467Z,31.51
2019-05-06T07:11:24.283Z,31.50
2019-05-06T07:12:00.551Z,31.52
2019-05-06T07:12:36.671Z,31.43
2019-05-06T07:13:14.972Z,31.28
2019-05-06T07:13:55.978Z,31.28
2019-05-06T07:14:35.836Z,31.22
2019-05-06T07:15:12.669Z,31.17
2019-05-06T07:15:49.315Z,31.14
2019-05-06T07:16:27.619Z,31.10
2019-05-06T07:17:04.245Z,31.06
2019-05-06T07:17:41.868Z,31.06
2019-05-06T07:18:18.607Z,30.92
2019-05-06T07:18:55.432Z,30.87
2019-05-06T07:19:36.365Z,30.83
2019-05-06T07:20:14.748Z,30.80
2019-05-06T07:20:56.437Z,30.75
2019-05-06T07:21:35.172Z,30.70
2019-05-06T07:22:12.774Z,30.66
2019-05-06T07:22:49.442Z,30.66
2019-05-06T07:23:26.958Z,30.59
2019-05-06T07:24:03.945Z,30.54
2019-05-06T07:24:40.331Z,30.49
2019-05-06T07:25:17.286Z,30.45
2019-05-06T07:25:54.245Z,30.38
2019-05-06T07:26:32.362Z,30.35
2019-05-06T07:27:12.407Z,30.31
2019-05-06T07:27:48.528Z,30.28
2019-05-06T07:28:24.615Z,30.26
2019-05-06T07:29:03.997Z,30.15
2019-05-06T07:29:38.314Z,30.15
2019-05-06T07:30:15.182Z,30.09
2019-05-06T07:30:52.210Z,30.06
2019-05-06T07:31:30.000Z,30.02
2019-05-06T07:32:07.617Z,29.99
2019-05-06T07:32:44.466Z,29.91
2019-05-06T07:33:22.645Z,29.91
2019-05-06T07:33:58.478Z,29.87
2019-05-06T07:34:34.103Z,29.81
2019-05-06T07:35:12.963Z,29.76
2019-05-06T07:35:52.643Z,29.74
2019-05-06T07:36:28.921Z,29.66
2019-05-06T07:37:05.672Z,29.68
2019-05-06T07:37:42.410Z,29.62
2019-05-06T07:38:19.459Z,29.57
2019-05-06T07:38:55.046Z,29.52
2019-05-06T07:39:33.342Z,29.46
2019-05-06T07:40:12.456Z,29.42
2019-05-06T07:40:53.009Z,29.39
2019-05-06T07:41:37.327Z,29.36
2019-05-06T07:42:15.595Z,29.33
2019-05-06T07:42:53.506Z,29.55
2019-05-06T07:43:44.406Z,29.55
2019-05-06T07:44:26.695Z,29.25
2019-05-06T07:45:22.043Z,29.26
2019-05-06T07:46:09.294Z,29.25
2019-05-06T07:46:57.286Z,29.24
2019-05-06T07:47:42.644Z,29.06
2019-05-06T07:48:19.655Z,29.06
2019-05-06T07:48:56.293Z,29.07
2019-05-06T07:49:33.046Z,29.03
2019-05-06T07:50:09.678Z,29.01
2019-05-06T07:50:49.012Z,28.95
2019-05-06T07:51:24.505Z,28.90
2019-05-06T07:52:02.752Z,28.84
2019-05-06T07:52:39.402Z,28.80
2019-05-06T07:53:16.272Z,28.75
2019-05-06T07:53:52.584Z,28.72
2019-05-06T07:54:29.335Z,28.61
2019-05-06T07:55:06.096Z,28.60
2019-05-06T07:55:42.892Z,28.57
2019-05-06T07:56:19.442Z,28.52
2019-05-06T07:56:56.271Z,28.48
2019-05-06T07:57:33.094Z,28.45
2019-05-06T07:58:15.649Z,28.42
2019-05-06T07:58:53.735Z,28.36
2019-05-06T07:59:30.359Z,28.31
2019-05-06T08:00:07.612Z,28.30
2019-05-06T08:00:45.337Z,28.25
2019-05-06T08:01:26.003Z,28.23
2019-05-06T08:02:02.258Z,28.18
2019-05-06T08:02:38.899Z,28.15
2019-05-06T08:03:15.442Z,28.08
2019-05-06T08:03:53.117Z,28.01
2019-05-06T08:04:29.287Z,28.00
2019-05-06T08:05:07.811Z,27.98
2019-05-06T08:05:54.643Z,27.92
2019-05-06T08:06:22.799Z,27.89
2019-05-06T08:06:59.376Z,27.85
2019-05-06T08:07:35.945Z,27.81
2019-05-06T08:08:12.969Z,27.76
2019-05-06T08:08:49.705Z,27.00
2019-05-06T08:09:25.854Z,26.49
2019-05-06T08:10:02.408Z,26.89
2019-05-06T08:10:38.962Z,27.05
2019-05-06T08:11:15.865Z,27.10
2019-05-06T08:11:53.075Z,27.13
2019-05-06T08:12:32.505Z,27.13
2019-05-06T08:13:09.502Z,27.12
2019-05-06T08:13:45.268Z,27.13
2019-05-06T08:14:22.588Z,27.11
2019-05-06T08:14:59.440Z,27.08
2019-05-06T08:15:35.427Z,27.07
2019-05-06T08:16:13.192Z,27.00
2019-05-06T08:16:50.584Z,26.98
2019-05-06T08:17:28.772Z,26.91
2019-05-06T08:18:05.629Z,26.91
2019-05-06T08:18:42.639Z,26.89
2019-05-06T08:19:19.052Z,26.86
2019-05-06T08:19:55.529Z,26.82
2019-05-06T08:20:38.287Z,26.75
2019-05-06T08:21:16.582Z,26.75
2019-05-06T08:22:02.658Z,26.76
2019-05-06T08:22:44.562Z,26.50
2019-05-06T08:23:22.712Z,26.59
2019-05-06T08:23:59.264Z,26.64
2019-05-06T08:24:35.602Z,26.62
2019-05-06T08:25:12.305Z,26.29
2019-05-06T08:25:52.767Z,26.29
2019-05-06T08:26:29.123Z,26.53
2019-05-06T08:27:05.442Z,26.50
2019-05-06T08:27:42.529Z,26.50
2019-05-06T08:28:19.260Z,26.83
2019-05-06T08:28:55.747Z,26.83
2019-05-06T08:29:33.056Z,26.41
2019-05-06T08:30:09.943Z,26.39
2019-05-06T08:30:46.259Z,26.37
2019-05-06T08:31:23.341Z,26.33
2019-05-06T08:31:59.758Z,26.29
2019-05-06T08:32:36.396Z,26.27
2019-05-06T08:33:13.073Z,26.26
2019-05-06T08:33:49.608Z,26.25
2019-05-06T08:34:26.257Z,26.21
2019-05-06T08:35:03.322Z,26.17
2019-05-06T08:35:42.627Z,26.14
2019-05-06T08:36:26.686Z,26.13
2019-05-06T08:37:07.735Z,26.10
2019-05-06T08:37:44.974Z,26.08
2019-05-06T08:38:22.601Z,26.07
2019-05-06T15:56:47.568Z,16.95
2019-05-06T15:57:24.314Z,17.11
2019-05-06T15:58:03.427Z,17.11
2019-05-06T15:58:42.311Z,16.98
2019-05-06T15:59:19.498Z,17.50
2019-05-06T15:59:55.380Z,17.50
2019-05-06T16:00:33.104Z,17.24
2019-05-06T16:01:10.533Z,16.93
2019-05-06T16:01:46.386Z,16.93
2019-05-06T16:02:23.496Z,17.09
2019-05-06T16:03:00.710Z,16.76
2019-05-06T16:03:37.360Z,16.69
2019-05-06T16:04:14.439Z,16.69
2019-05-06T16:04:51.513Z,16.62
2019-05-06T16:05:27.865Z,16.42
2019-05-06T16:06:04.729Z,16.13
2019-05-06T16:06:44.440Z,16.21
2019-05-06T16:07:20.012Z,16.07
2019-05-06T16:07:56.752Z,16.31
2019-05-06T16:08:35.254Z,16.12
2019-05-06T16:09:14.333Z,16.40
2019-05-06T16:09:55.012Z,16.60
2019-05-06T16:10:30.362Z,16.57
2019-05-06T16:11:09.414Z,16.59
2019-05-06T16:11:46.327Z,16.61
2019-05-06T16:12:23.490Z,16.81
2019-05-06T16:12:59.701Z,16.78
2019-05-06T16:13:36.385Z,16.78
2019-05-06T16:14:12.979Z,16.84
2019-05-06T16:14:52.854Z,16.85
2019-05-06T16:15:33.309Z,16.86
2019-05-06T16:16:07.049Z,16.91
2019-05-06T16:16:43.684Z,16.95
2019-05-06T16:17:20.657Z,16.94
2019-05-06T16:17:57.717Z,17.05
2019-05-06T16:18:33.947Z,17.07
2019-05-06T16:19:12.822Z,17.18
2019-05-06T16:19:53.852Z,17.23
2019-05-06T16:20:33.045Z,17.33
2019-05-06T16:21:07.876Z,17.57
2019-05-06T16:21:45.676Z,17.69
2019-05-06T16:22:22.572Z,17.59
2019-05-06T16:23:03.446Z,17.49
2019-05-06T16:23:42.778Z,17.45
2019-05-06T16:24:20.392Z,17.67
2019-05-06T16:25:02.523Z,17.74
2019-05-06T16:25:38.547Z,17.88
2019-05-06T16:26:14.296Z,17.76
2019-05-06T16:26:54.566Z,17.87
2019-05-06T16:27:30.073Z,18.11
2019-05-06T16:28:06.288Z,18.11
2019-05-06T16:28:45.039Z,17.98
2019-05-06T16:29:22.362Z,17.90
2019-05-06T16:29:57.931Z,17.97
2019-05-06T16:30:33.997Z,18.00
2019-05-06T16:31:12.903Z,18.16
2019-05-06T16:31:49.103Z,18.17
2019-05-06T16:32:25.426Z,18.18
2019-05-06T16:33:04.075Z,18.39
2019-05-06T16:33:43.124Z,18.56
2019-05-06T16:34:22.772Z,18.89
2019-05-06T16:34:59.752Z,19.13
2019-05-06T16:35:36.538Z,19.25
2019-05-06T16:36:13.164Z,19.62
2019-05-06T16:36:49.918Z,19.86
2019-05-06T16:37:26.716Z,20.05
